Time;durP1;ratioP1;P1;durP2;ratioP2;P2;SDS_P1;SDS_P2;PMS_P1;PMS_P2;Temp;Humidity;BMP_temperature;BMP_pressure;BME280_temperature;BME280_humidity;BME280_pressure;Samples;Min_cycle;Max_cycle;Signal;HPM_P1;HPM_P2
2022/08/10 00:01:51;;;;;;;2.60;1.35;;;21.10;99.90;;;;;;5011364;28;20463;-76
2022/08/10 00:04:20;;;;;;;1.17;0.90;;;21.00;99.90;;;;;;5012620;28;20072;-76
2022/08/10 00:06:50;;;;;;;1.98;1.23;;;21.00;99.90;;;;;;5012632;28;20562;-76
2022/08/10 00:09:17;;;;;;;4.85;1.30;;;21.00;99.90;;;;;;5014874;28;20137;-76
2022/08/10 00:11:44;;;;;;;4.00;1.02;;;21.10;99.90;;;;;;5014727;28;20049;-76
2022/08/10 00:14:10;;;;;;;6.30;1.55;;;21.00;99.90;;;;;;5014407;28;20164;-76
2022/08/10 00:16:37;;;;;;;2.28;1.10;;;21.00;99.90;;;;;;5021885;28;20137;-76
2022/08/10 00:19:04;;;;;;;1.70;1.20;;;21.00;99.90;;;;;;5014453;28;20058;-76
2022/08/10 00:21:31;;;;;;;1.95;1.08;;;20.80;99.90;;;;;;5014613;28;20088;-76
2022/08/10 00:23:57;;;;;;;2.35;1.10;;;20.70;99.90;;;;;;5021082;28;20480;-76
2022/08/10 00:26:24;;;;;;;2.70;1.27;;;20.70;99.90;;;;;;5014604;28;20050;-76
2022/08/10 00:28:51;;;;;;;5.82;1.20;;;20.70;99.90;;;;;;5014210;28;20577;-76
2022/08/10 00:31:18;;;;;;;5.20;1.40;;;20.80;99.90;;;;;;5012778;28;20078;-77
2022/08/10 00:33:45;;;;;;;4.95;1.40;;;20.70;99.90;;;;;;5014437;28;20060;-77
2022/08/10 00:36:12;;;;;;;4.53;1.35;;;20.70;99.90;;;;;;5014373;28;20137;-77
2022/08/10 00:38:38;;;;;;;2.85;1.23;;;20.60;99.90;;;;;;5012267;28;20092;-77
2022/08/10 00:41:05;;;;;;;3.78;0.95;;;20.40;99.90;;;;;;5014196;28;20125;-75
2022/08/10 00:43:32;;;;;;;3.03;1.10;;;20.30;99.90;;;;;;5014448;28;20085;-75
2022/08/10 00:45:59;;;;;;;3.40;1.17;;;20.20;99.90;;;;;;5014357;28;20049;-75
2022/08/10 00:48:28;;;;;;;2.33;1.30;;;20.20;99.90;;;;;;5013896;28;20078;-75
2022/08/10 00:50:58;;;;;;;4.43;1.42;;;20.20;99.90;;;;;;5014050;28;20192;-75
2022/08/10 00:53:28;;;;;;;4.70;1.30;;;20.20;99.90;;;;;;5014324;28;20049;-75
2022/08/10 00:55:55;;;;;;;3.67;1.40;;;20.20;99.90;;;;;;5014273;28;20284;-75
2022/08/10 00:58:42;;;;;;;1.98;1.10;;;20.40;99.90;;;;;;5021976;28;20057;-74
2022/08/10 01:01:09;;;;;;;3.60;1.23;;;20.40;99.90;;;;;;5014443;28;20108;-75
2022/08/10 01:03:56;;;;;;;3.17;1.10;;;20.30;99.90;;;;;;5014179;28;20416;-78
2022/08/10 01:07:00;;;;;;;1.60;1.20;;;20.20;99.90;;;;;;5013084;28;20053;-75
2022/08/10 01:09:51;;;;;;;4.50;1.02;;;20.20;99.90;;;;;;5012868;28;20050;-76
2022/08/10 01:12:48;;;;;;;2.15;1.08;;;20.30;99.90;;;;;;5012962;28;20042;-75
2022/08/10 01:15:15;;;;;;;1.60;1.20;;;20.20;99.90;;;;;;5011138;28;20054;-75
2022/08/10 01:17:48;;;;;;;2.13;1.33;;;20.10;99.90;;;;;;5013588;28;20092;-75
2022/08/10 01:20:31;;;;;;;3.08;1.10;;;20.10;99.90;;;;;;5011356;28;20100;-75
2022/08/10 01:23:51;;;;;;;1.13;1.02;;;20.10;99.90;;;;;;5011066;28;20133;-75
2022/08/10 01:26:41;;;;;;;3.60;1.30;;;20.00;99.90;;;;;;4986948;28;20057;-76
2022/08/10 01:29:45;;;;;;;2.88;1.00;;;20.00;99.90;;;;;;5013429;28;20100;-76
2022/08/10 01:32:16;;;;;;;2.55;1.17;;;20.00;99.90;;;;;;5011246;28;20041;-76
2022/08/10 01:34:50;;;;;;;2.53;1.42;;;20.00;99.90;;;;;;5013475;28;20462;-75
2022/08/10 01:37:22;;;;;;;2.38;1.20;;;20.00;99.90;;;;;;5011646;28;20053;-75
2022/08/10 01:39:54;;;;;;;1.58;1.10;;;20.00;99.90;;;;;;5012503;28;20104;-75
2022/08/10 01:42:22;;;;;;;4.00;1.00;;;19.90;99.90;;;;;;5011947;28;20049;-75
2022/08/10 01:44:55;;;;;;;2.17;1.13;;;19.90;99.90;;;;;;5013085;28;20133;-75
2022/08/10 01:50:27;;;;;;;3.22;1.17;;;19.90;99.90;;;;;;5012080;28;20092;-76
2022/08/10 01:53:02;;;;;;;3.35;1.45;;;19.80;99.90;;;;;;5011489;28;20568;-75
2022/08/10 01:55:30;;;;;;;3.20;1.30;;;19.80;99.90;;;;;;5010087;28;20069;-76
2022/08/10 01:58:01;;;;;;;2.13;1.23;;;19.60;99.90;;;;;;5012733;28;20511;-75
2022/08/10 02:00:29;;;;;;;2.22;1.40;;;19.50;99.90;;;;;;5009671;28;20129;-75
2022/08/10 02:02:59;;;;;;;4.03;1.65;;;19.50;99.90;;;;;;5012722;28;20132;-75
2022/08/10 02:05:28;;;;;;;1.77;1.13;;;19.60;99.90;;;;;;5026256;28;20136;-75
2022/08/10 02:07:58;;;;;;;2.47;1.10;;;19.50;99.90;;;;;;5012458;28;20045;-76
2022/08/10 02:10:27;;;;;;;1.63;1.10;;;19.50;99.90;;;;;;5012959;28;20512;-75
2022/08/10 02:12:57;;;;;;;3.20;1.48;;;19.30;99.90;;;;;;5012845;28;20077;-75
2022/08/10 02:15:28;;;;;;;2.35;1.38;;;19.40;99.90;;;;;;5012820;28;20050;-75
2022/08/10 02:18:00;;;;;;;3.78;1.30;;;19.30;99.90;;;;;;5012432;28;20515;-76
2022/08/10 02:20:33;;;;;;;1.73;1.40;;;19.40;99.90;;;;;;5012389;28;20060;-75
2022/08/10 02:23:07;;;;;;;2.60;1.25;;;19.50;99.90;;;;;;5012713;28;20092;-75
2022/08/10 02:25:35;;;;;;;3.97;1.15;;;19.50;99.90;;;;;;5012702;28;20491;-75
2022/08/10 02:28:12;;;;;;;2.38;1.40;;;19.50;99.90;;;;;;5011557;28;20074;-75
2022/08/10 02:31:03;;;;;;;3.83;1.25;;;19.50;99.90;;;;;;5011034;28;20065;-76
2022/08/10 02:33:34;;;;;;;2.25;1.70;;;19.40;99.90;;;;;;5012342;28;20070;-75
2022/08/10 02:36:05;;;;;;;2.45;1.27;;;19.50;99.90;;;;;;5012368;28;20057;-76
2022/08/10 02:38:37;;;;;;;3.42;1.08;;;19.40;99.90;;;;;;5011774;28;20492;-75
2022/08/10 02:41:39;;;;;;;3.13;1.27;;;19.50;99.90;;;;;;5012094;28;20057;-76
2022/08/10 02:44:40;;;;;;;2.13;1.27;;;19.50;99.90;;;;;;5011988;28;20499;-75
2022/08/10 02:47:38;;;;;;;5.10;1.55;;;19.40;99.90;;;;;;5011034;28;20056;-75
2022/08/10 02:50:21;;;;;;;1.63;1.20;;;19.50;99.90;;;;;;5011541;28;20050;-76
2022/08/10 02:52:53;;;;;;;1.98;1.20;;;19.50;99.90;;;;;;5011932;28;20077;-75
2022/08/10 02:55:53;;;;;;;3.50;1.63;;;19.40;99.90;;;;;;5011816;28;20041;-75
2022/08/10 02:58:27;;;;;;;3.70;1.27;;;19.40;99.90;;;;;;5006429;28;20076;-75
2022/08/10 03:00:56;;;;;;;3.28;1.30;;;19.30;99.90;;;;;;5009088;28;20080;-75
2022/08/10 03:03:29;;;;;;;2.38;1.30;;;19.30;99.90;;;;;;5011737;28;20062;-75
2022/08/10 03:06:04;;;;;;;2.28;1.95;;;19.40;99.90;;;;;;5008717;28;20145;-75
2022/08/10 03:08:35;;;;;;;5.22;1.48;;;19.30;99.90;;;;;;5011567;28;20084;-75
2022/08/10 03:11:04;;;;;;;2.53;1.52;;;19.20;99.90;;;;;;5009084;28;20042;-75
2022/08/10 03:13:33;;;;;;;2.60;1.55;;;19.20;99.90;;;;;;5011505;28;20137;-75
2022/08/10 03:16:01;;;;;;;7.88;1.80;;;19.10;99.90;;;;;;5008977;28;20053;-75
2022/08/10 03:18:30;;;;;;;2.40;1.88;;;19.10;99.90;;;;;;5011237;28;20133;-75
2022/08/10 03:20:58;;;;;;;7.85;1.60;;;19.10;99.90;;;;;;5011130;28;20050;-75
2022/08/10 03:23:26;;;;;;;3.65;1.38;;;19.10;99.90;;;;;;5011708;28;20609;-75
2022/08/10 03:25:56;;;;;;;6.72;1.80;;;19.10;99.90;;;;;;5011370;28;20203;-75
2022/08/10 03:28:25;;;;;;;2.10;1.40;;;19.00;99.90;;;;;;5008394;28;20132;-75
2022/08/10 03:30:53;;;;;;;4.43;2.10;;;19.00;99.90;;;;;;5011491;28;20494;-76
2022/08/10 03:33:22;;;;;;;3.28;1.65;;;19.00;99.90;;;;;;5011536;28;20506;-75
2022/08/10 03:35:50;;;;;;;17.70;1.65;;;19.00;99.90;;;;;;5011181;28;20132;-75
2022/08/10 03:38:39;;;;;;;3.78;1.33;;;19.00;99.90;;;;;;5014212;28;20054;-75
2022/08/10 03:41:11;;;;;;;3.15;1.60;;;19.00;99.90;;;;;;5016979;28;20057;-76
2022/08/10 03:43:45;;;;;;;2.13;1.77;;;19.00;99.90;;;;;;5017983;28;20050;-75
2022/08/10 03:46:14;;;;;;;3.38;1.65;;;19.00;99.90;;;;;;5017680;28;20508;-75
2022/08/10 03:48:41;;;;;;;3.50;1.52;;;18.90;99.90;;;;;;5017731;28;20054;-75
2022/08/10 03:51:17;;;;;;;5.72;1.40;;;18.80;99.90;;;;;;5017521;28;20046;-76
2022/08/10 03:53:45;;;;;;;3.63;1.80;;;18.80;99.90;;;;;;5017883;28;20412;-75
2022/08/10 03:56:36;;;;;;;4.30;1.38;;;18.90;99.90;;;;;;5017303;28;20049;-75
2022/08/10 03:59:05;;;;;;;2.72;1.65;;;18.80;99.90;;;;;;5017409;28;20534;-76
2022/08/10 04:01:32;;;;;;;2.50;1.45;;;18.70;99.90;;;;;;5017417;28;20111;-75
2022/08/10 04:04:19;;;;;;;2.58;1.70;;;18.80;99.90;;;;;;5017147;28;20496;-75
2022/08/10 04:06:52;;;;;;;2.00;1.60;;;18.80;99.90;;;;;;5015843;28;20058;-75
2022/08/10 04:09:29;;;;;;;3.42;1.88;;;18.80;99.90;;;;;;5017266;28;20082;-75
2022/08/10 04:12:15;;;;;;;2.35;1.50;;;18.70;99.90;;;;;;5016926;28;20060;-76
2022/08/10 04:14:42;;;;;;;3.15;1.88;;;18.70;99.90;;;;;;5017270;28;20086;-75
2022/08/10 04:17:18;;;;;;;2.63;1.58;;;18.70;99.90;;;;;;5017025;28;20049;-75
2022/08/10 04:20:09;;;;;;;5.38;1.58;;;18.60;99.90;;;;;;5016879;28;20050;-75
2022/08/10 04:22:38;;;;;;;4.13;1.80;;;18.60;99.90;;;;;;5017531;28;20042;-75
2022/08/10 04:25:06;;;;;;;3.38;1.65;;;18.50;99.90;;;;;;5017446;28;20053;-75
2022/08/10 04:27:33;;;;;;;6.55;1.85;;;18.50;99.90;;;;;;5017481;28;20077;-75
2022/08/10 04:30:00;;;;;;;6.93;2.20;;;18.30;99.90;;;;;;5017183;28;20100;-75
2022/08/10 04:32:30;;;;;;;4.88;1.85;;;18.40;99.90;;;;;;5017105;28;20142;-75
2022/08/10 04:34:57;;;;;;;11.15;2.05;;;18.20;99.90;;;;;;5017568;28;20046;-75
2022/08/10 04:37:25;;;;;;;5.95;1.90;;;18.10;99.90;;;;;;5017476;28;20077;-76
2022/08/10 04:39:52;;;;;;;4.53;1.60;;;18.10;99.90;;;;;;5017255;28;20046;-75
2022/08/10 04:42:19;;;;;;;8.77;1.52;;;18.10;99.90;;;;;;5015166;28;20077;-75
2022/08/10 04:44:46;;;;;;;2.28;1.67;;;18.00;99.90;;;;;;5017124;28;20050;-75
2022/08/10 04:47:13;;;;;;;1.90;1.48;;;18.00;99.90;;;;;;5017147;28;20046;-75
2022/08/10 04:50:00;;;;;;;5.53;1.80;;;18.10;99.90;;;;;;5014320;28;20570;-75
2022/08/10 04:52:28;;;;;;;11.63;1.75;;;18.10;99.90;;;;;;5014172;28;20050;-76
2022/08/10 04:54:55;;;;;;;5.75;1.77;;;18.00;99.90;;;;;;5012750;28;20144;-75
2022/08/10 04:57:22;;;;;;;2.05;1.35;;;18.00;99.90;;;;;;5013987;28;20054;-75
2022/08/10 04:59:49;;;;;;;6.72;1.98;;;18.10;99.90;;;;;;5014233;28;20062;-75
2022/08/10 05:02:15;;;;;;;1.90;1.50;;;18.10;99.90;;;;;;5014122;28;20089;-75
2022/08/10 05:04:57;;;;;;;4.10;1.65;;;18.20;99.90;;;;;;5013292;28;20054;-75
2022/08/10 05:07:24;;;;;;;2.47;1.25;;;18.30;99.90;;;;;;5013977;28;20084;-76
2022/08/10 05:09:53;;;;;;;3.97;1.60;;;18.40;99.90;;;;;;5013404;28;20073;-76
2022/08/10 05:12:35;;;;;;;;;;;18.50;99.90;;;;;;5014342;28;20100;-75
2022/08/10 05:15:09;;;;;;;1.88;1.63;;;18.50;99.90;;;;;;5013398;28;19997;-74
2022/08/10 05:17:37;;;;;;;3.67;1.50;;;18.60;99.90;;;;;;5011506;28;20092;-75
2022/08/10 05:20:05;;;;;;;1.90;1.20;;;18.70;99.90;;;;;;5013794;28;20058;-76
2022/08/10 05:22:39;;;;;;;3.85;1.65;;;18.60;99.90;;;;;;5011111;28;20053;-75
2022/08/10 05:25:13;;;;;;;6.18;1.80;;;18.70;99.90;;;;;;5013559;28;20042;-76
2022/08/10 05:27:40;;;;;;;1.77;1.45;;;18.70;99.90;;;;;;5011135;28;20073;-76
2022/08/10 05:30:15;;;;;;;4.35;1.83;;;18.80;99.90;;;;;;5013352;28;20129;-75
2022/08/10 05:32:42;;;;;;;6.75;1.63;;;18.80;99.90;;;;;;5011168;28;20138;-75
2022/08/10 05:35:25;;;;;;;6.55;2.30;;;18.90;99.90;;;;;;5013269;28;20659;-75
2022/08/10 05:37:55;;;;;;;6.53;1.83;;;18.90;99.90;;;;;;5013359;28;20046;-76
2022/08/10 05:40:40;;;;;;;4.07;1.77;;;18.90;99.90;;;;;;5012362;28;20083;-75
2022/08/10 05:43:18;;;;;;;5.00;1.50;;;18.90;99.90;;;;;;5010967;28;20455;-75
2022/08/10 05:45:45;;;;;;;13.05;1.73;;;19.00;99.90;;;;;;5013367;28;20053;-75
2022/08/10 05:48:33;;;;;;;6.97;1.80;;;19.00;99.90;;;;;;5012047;28;20492;-75
2022/08/10 05:51:20;;;;;;;3.83;1.60;;;19.00;99.90;;;;;;5012435;28;20504;-75
2022/08/10 05:53:48;;;;;;;5.22;1.67;;;19.10;99.90;;;;;;5013159;28;20056;-75
2022/08/10 05:56:33;;;;;;;5.68;1.67;;;19.10;99.90;;;;;;5013150;28;20050;-76
2022/08/10 05:59:22;;;;;;;4.65;2.35;;;19.10;99.90;;;;;;5012417;28;20064;-75
2022/08/10 06:02:11;;;;;;;7.18;2.00;;;19.10;99.90;;;;;;5011482;28;20061;-75
2022/08/10 06:05:02;;;;;;;5.28;1.77;;;19.10;99.90;;;;;;5012362;28;20089;-76
2022/08/10 06:07:29;;;;;;;8.23;1.95;;;19.20;99.90;;;;;;5012727;28;20074;-76
2022/08/10 06:09:59;;;;;;;7.43;2.20;;;19.20;99.90;;;;;;5012257;28;20088;-76
2022/08/10 06:12:28;;;;;;;4.45;2.00;;;19.30;99.90;;;;;;5009736;28;20056;-76
2022/08/10 06:15:00;;;;;;;3.92;1.52;;;19.30;99.90;;;;;;5012921;28;20141;-76
2022/08/10 06:17:32;;;;;;;3.63;1.75;;;19.40;99.90;;;;;;5012575;28;20471;-76
2022/08/10 06:19:59;;;;;;;5.05;1.98;;;19.40;99.90;;;;;;5012400;28;20053;-76
2022/08/10 06:22:29;;;;;;;3.22;1.50;;;19.50;99.90;;;;;;5012332;28;20471;-76
2022/08/10 06:24:56;;;;;;;4.07;1.80;;;19.60;99.90;;;;;;5012694;28;20069;-76
2022/08/10 06:27:43;;;;;;;4.68;2.25;;;19.60;99.90;;;;;;5012472;28;20072;-76
2022/08/10 06:30:11;;;;;;;4.30;1.80;;;19.70;99.90;;;;;;5012133;28;20471;-76
2022/08/10 06:32:49;;;;;;;2.72;1.50;;;19.70;99.90;;;;;;5012381;28;20041;-76
2022/08/10 06:35:17;;;;;;;3.38;1.95;;;19.70;99.90;;;;;;5012457;28;20049;-76
2022/08/10 06:37:44;;;;;;;5.40;1.55;;;19.80;99.90;;;;;;5012238;28;20133;-76
2022/08/10 06:40:18;;;;;;;7.00;1.38;;;19.90;99.90;;;;;;5011847;28;20133;-76
2022/08/10 06:42:49;;;;;;;5.85;1.88;;;19.90;99.90;;;;;;5011948;28;20049;-76
2022/08/10 06:45:21;;;;;;;3.65;1.58;;;20.00;99.90;;;;;;5012267;28;20100;-76
2022/08/10 06:47:58;;;;;;;2.30;1.70;;;20.00;99.90;;;;;;5011949;28;20057;-76
2022/08/10 06:50:42;;;;;;;6.10;2.00;;;20.00;99.90;;;;;;5008569;28;20121;-76
2022/08/10 06:53:29;;;;;;;5.53;1.98;;;20.10;99.90;;;;;;5012131;28;20049;-76
2022/08/10 06:56:19;;;;;;;3.05;1.60;;;20.10;99.90;;;;;;5012001;28;20045;-75
2022/08/10 06:59:37;;;;;;;4.47;1.63;;;20.10;99.90;;;;;;5011807;28;20050;-76
2022/08/10 07:02:08;;;;;;;7.20;1.70;;;20.20;99.90;;;;;;5011662;28;20049;-76
2022/08/10 07:04:55;;;;;;;6.35;2.45;;;20.20;99.90;;;;;;5008775;28;20046;-75
2022/08/10 07:07:26;;;;;;;4.32;1.70;;;20.30;99.90;;;;;;5008998;28;20137;-76
2022/08/10 07:09:56;;;;;;;3.42;1.75;;;20.30;99.90;;;;;;5011738;28;20056;-76
2022/08/10 07:12:24;;;;;;;1.83;1.53;;;20.40;99.90;;;;;;5008699;28;20088;-77
2022/08/10 07:14:52;;;;;;;3.22;1.40;;;20.40;99.90;;;;;;5011331;28;20041;-76
2022/08/10 07:17:23;;;;;;;2.42;1.83;;;20.50;99.90;;;;;;5011204;28;20124;-76
2022/08/10 07:19:53;;;;;;;7.20;1.55;;;20.60;99.90;;;;;;5011315;28;20610;-76
2022/08/10 07:22:24;;;;;;;5.03;1.70;;;20.60;99.90;;;;;;5010862;28;20085;-76
2022/08/10 07:25:14;;;;;;;4.63;1.90;;;20.70;99.90;;;;;;5011581;28;20056;-76
2022/08/10 07:27:42;;;;;;;3.70;1.52;;;20.80;99.90;;;;;;5011501;28;20077;-76
2022/08/10 07:30:30;;;;;;;2.92;1.50;;;20.80;99.90;;;;;;5010360;28;20133;-76
2022/08/10 07:32:59;;;;;;;5.47;1.80;;;21.00;99.90;;;;;;5011208;28;20125;-76
2022/08/10 07:35:27;;;;;;;4.47;1.42;;;21.00;99.90;;;;;;5011384;28;20053;-76
2022/08/10 07:38:09;;;;;;;5.82;1.55;;;21.00;99.90;;;;;;5009220;28;20120;-76
2022/08/10 07:40:38;;;;;;;5.20;1.90;;;21.10;99.90;;;;;;5011043;28;20060;-76
2022/08/10 07:43:06;;;;;;;2.58;1.33;;;21.10;99.90;;;;;;5009216;28;20076;-76
2022/08/10 07:45:36;;;;;;;4.30;1.42;;;21.20;99.90;;;;;;5011439;28;20145;-76
2022/08/10 07:48:10;;;;;;;6.78;1.67;;;21.40;99.90;;;;;;5011100;28;20082;-76
2022/08/10 07:50:39;;;;;;;4.78;1.55;;;21.40;99.90;;;;;;5010846;28;20129;-76
2022/08/10 07:53:12;;;;;;;6.57;1.35;;;21.50;99.90;;;;;;5011165;28;20137;-76
2022/08/10 07:55:41;;;;;;;3.80;1.73;;;21.50;99.90;;;;;;5011421;28;20041;-76
2022/08/10 07:58:30;;;;;;;4.75;1.40;;;21.60;99.90;;;;;;5010815;28;20050;-76
2022/08/10 08:00:58;;;;;;;7.13;1.67;;;21.70;99.90;;;;;;5009070;28;20144;-76
2022/08/10 08:03:29;;;;;;;3.28;1.70;;;21.90;99.90;;;;;;5011251;28;20050;-76
2022/08/10 08:05:58;;;;;;;5.55;1.95;;;22.00;99.90;;;;;;5011153;28;20141;-76
2022/08/10 08:08:32;;;;;;;5.32;1.27;;;22.10;99.90;;;;;;5009121;28;20100;-76
2022/08/10 08:10:59;;;;;;;2.50;1.42;;;22.10;99.90;;;;;;5011011;28;20386;-76
2022/08/10 08:13:29;;;;;;;6.90;1.27;;;22.20;99.90;;;;;;5011240;28;20050;-76
2022/08/10 08:15:57;;;;;;;3.93;1.47;;;22.40;99.90;;;;;;5010481;28;20516;-76
2022/08/10 08:18:45;;;;;;;2.03;1.23;;;22.40;99.90;;;;;;5010056;28;20273;-77
2022/08/10 08:21:34;;;;;;;5.47;1.50;;;22.50;99.90;;;;;;5010944;28;20075;-76
2022/08/10 08:24:22;;;;;;;2.50;1.33;;;22.80;99.90;;;;;;5010859;28;20058;-77
2022/08/10 08:27:01;;;;;;;1.85;1.02;;;22.80;99.90;;;;;;5014424;28;20057;-76
2022/08/10 08:29:32;;;;;;;2.83;1.10;;;22.80;99.90;;;;;;5014521;28;20046;-76
2022/08/10 08:32:00;;;;;;;2.25;1.02;;;22.90;99.90;;;;;;5014585;28;20455;-76
2022/08/10 08:34:36;;;;;;;5.22;1.10;;;23.00;99.90;;;;;;5014314;28;20045;-76
2022/08/10 08:37:04;;;;;;;4.18;1.50;;;23.10;99.90;;;;;;5014574;28;20046;-76
2022/08/10 08:39:32;;;;;;;5.40;1.30;;;23.20;99.90;;;;;;5014401;28;20064;-76
2022/08/10 08:42:43;;;;;;;2.05;1.08;;;23.20;99.90;;;;;;5014275;28;20124;-76
2022/08/10 08:45:29;;;;;;;4.75;1.23;;;23.40;99.90;;;;;;5014319;28;20049;-76
2022/08/10 08:48:21;;;;;;;7.80;1.52;;;23.50;99.90;;;;;;5012925;28;20557;-77
2022/08/10 08:51:05;;;;;;;2.58;1.05;;;23.60;99.90;;;;;;5014045;28;20049;-76
2022/08/10 08:53:47;;;;;;;1.23;1.02;;;23.80;99.90;;;;;;5014097;28;20088;-76
2022/08/10 08:57:06;;;;;;;5.82;1.05;;;24.10;99.90;;;;;;5014066;28;20050;-76
2022/08/10 08:59:52;;;;;;;2.35;1.42;;;24.30;99.90;;;;;;5013710;28;20054;-76
2022/08/10 09:02:46;;;;;;;2.72;1.23;;;24.40;99.90;;;;;;5012986;28;20054;-76
2022/08/10 09:05:33;;;;;;;3.47;1.20;;;24.40;99.90;;;;;;5012608;28;20480;-76
2022/08/10 09:08:57;;;;;;;2.77;1.20;;;24.40;99.90;;;;;;5013167;28;20393;-77
2022/08/10 09:11:49;;;;;;;5.25;1.20;;;24.50;99.90;;;;;;5013260;28;20050;-76
2022/08/10 09:14:43;;;;;;;2.88;1.10;;;24.60;99.90;;;;;;5012826;28;20085;-76
2022/08/10 09:17:39;;;;;;;4.18;1.38;;;24.80;99.90;;;;;;5012356;28;20115;-76
2022/08/10 09:20:44;;;;;;;2.17;1.42;;;24.90;99.90;;;;;;5012854;28;20077;-76
2022/08/10 09:23:23;;;;;;;2.30;0.93;;;24.80;99.90;;;;;;5011905;28;20077;-76
2022/08/10 09:26:19;;;;;;;2.80;0.90;;;25.00;99.90;;;;;;5013066;28;20042;-76
2022/08/10 09:28:47;;;;;;;2.92;1.10;;;25.10;99.90;;;;;;5013152;28;20492;-76
2022/08/10 09:31:45;;;;;;;5.10;0.80;;;25.10;99.90;;;;;;5012670;28;20061;-76
2022/08/10 09:34:45;;;;;;;2.78;1.23;;;25.20;99.90;;;;;;5011073;28;20056;-76
2022/08/10 09:37:43;;;;;;;1.33;0.98;;;25.20;99.90;;;;;;5012604;28;20057;-76
2022/08/10 09:40:52;;;;;;;6.90;1.00;;;25.10;99.90;;;;;;5010525;28;20056;-76
2022/08/10 09:43:35;;;;;;;3.92;1.70;;;25.30;99.90;;;;;;5013481;28;20054;-76
2022/08/10 09:46:32;;;;;;;2.72;1.48;;;25.40;99.90;;;;;;5011190;28;20054;-76
2022/08/10 09:49:20;;;;;;;5.57;1.20;;;25.50;99.90;;;;;;5012906;28;20128;-76
2022/08/10 09:52:23;;;;;;;5.05;1.55;;;25.50;99.90;;;;;;5011260;28;20075;-77
2022/08/10 09:55:13;;;;;;;3.15;1.00;;;25.50;99.90;;;;;;5013251;28;20132;-76
2022/08/10 09:57:55;;;;;;;2.58;1.02;;;25.50;99.90;;;;;;5012304;28;20488;-76
2022/08/10 10:00:39;;;;;;;4.00;1.20;;;25.40;99.90;;;;;;5012951;28;20057;-76
2022/08/10 10:03:24;;;;;;;3.58;0.90;;;25.40;99.90;;;;;;5011768;28;20100;-77
2022/08/10 10:05:58;;;;;;;5.13;0.90;;;25.30;99.90;;;;;;5011663;28;20053;-76
2022/08/10 10:08:46;;;;;;;2.13;0.80;;;25.50;99.90;;;;;;5010250;28;20068;-76
2022/08/10 10:11:24;;;;;;;3.90;0.80;;;25.80;99.90;;;;;;5012886;28;20141;-76
2022/08/10 10:14:04;;;;;;;1.63;0.90;;;25.80;99.90;;;;;;5012467;28;20157;-76
2022/08/10 10:16:56;;;;;;;2.55;1.10;;;25.80;99.90;;;;;;5010087;28;20053;-77
2022/08/10 10:19:47;;;;;;;2.95;1.20;;;25.70;99.90;;;;;;5012461;28;20069;-76
2022/08/10 10:22:25;;;;;;;;;;;25.80;99.70;;;;;;5013216;28;20141;-76
2022/08/10 10:25:00;;;;;;;2.58;0.82;;;25.80;99.60;;;;;;5012450;28;19929;-76
2022/08/10 10:27:56;;;;;;;2.60;1.08;;;25.90;99.70;;;;;;5012510;28;20137;-76
2022/08/10 10:30:30;;;;;;;2.92;0.98;;;25.90;99.60;;;;;;5011951;28;20111;-76
2022/08/10 10:33:19;;;;;;;1.80;0.73;;;26.00;99.20;;;;;;5012307;28;20474;-76
2022/08/10 10:35:54;;;;;;;2.55;1.00;;;26.00;99.30;;;;;;5008747;28;20046;-76
2022/08/10 10:38:27;;;;;;;2.95;0.75;;;26.10;98.60;;;;;;5011941;28;20050;-77
2022/08/10 10:41:30;;;;;;;2.63;0.88;;;26.10;98.20;;;;;;5012315;28;20082;-76
2022/08/10 10:44:20;;;;;;;3.47;0.90;;;26.20;98.40;;;;;;5012059;28;20512;-76
2022/08/10 10:47:12;;;;;;;3.55;1.10;;;26.20;98.30;;;;;;5012410;28;20053;-77
2022/08/10 10:49:49;;;;;;;1.02;0.70;;;26.20;97.90;;;;;;5009596;28;20056;-76
2022/08/10 10:52:37;;;;;;;0.85;0.70;;;26.30;97.80;;;;;;5011856;28;20092;-76
2022/08/10 10:55:12;;;;;;;5.18;0.90;;;26.30;97.80;;;;;;5011991;28;20089;-77
2022/08/10 10:58:06;;;;;;;4.07;0.80;;;26.30;98.20;;;;;;5012232;28;20124;-76
2022/08/10 11:00:45;;;;;;;2.47;0.88;;;26.40;98.00;;;;;;5011535;28;20049;-76
2022/08/10 11:04:01;;;;;;;2.72;1.00;;;26.30;97.80;;;;;;5011779;28;20492;-77
2022/08/10 11:06:47;;;;;;;1.70;0.90;;;26.40;96.80;;;;;;4960355;28;20088;-77
2022/08/10 11:09:21;;;;;;;3.15;0.82;;;26.40;97.30;;;;;;5011298;28;20535;-76
2022/08/10 11:12:24;;;;;;;1.70;0.70;;;26.50;97.10;;;;;;5011698;28;20054;-76
2022/08/10 11:15:17;;;;;;;4.13;0.98;;;26.70;96.90;;;;;;5011378;28;20074;-76
2022/08/10 11:18:24;;;;;;;1.67;0.73;;;26.70;96.80;;;;;;5011799;28;20042;-76
2022/08/10 11:21:03;;;;;;;2.38;0.88;;;27.00;95.90;;;;;;5010056;28;20165;-77
2022/08/10 11:23:53;;;;;;;1.75;0.90;;;27.30;95.50;;;;;;5009588;28;20053;-76
2022/08/10 11:26:52;;;;;;;0.90;0.65;;;27.50;95.50;;;;;;5009322;28;20061;-76
2022/08/10 11:29:30;;;;;;;1.17;0.83;;;27.40;95.40;;;;;;5011217;28;20476;-76
2022/08/10 11:32:11;;;;;;;3.33;1.00;;;27.40;95.30;;;;;;5011474;28;20068;-76
2022/08/10 11:35:04;;;;;;;2.97;0.67;;;27.50;95.10;;;;;;5011275;28;20123;-76
2022/08/10 11:37:54;;;;;;;1.77;0.90;;;27.50;94.50;;;;;;5009229;28;20295;-76
2022/08/10 11:40:46;;;;;;;5.85;1.33;;;27.60;94.90;;;;;;5009947;28;20057;-76
2022/08/10 11:43:25;;;;;;;1.98;0.70;;;27.60;94.80;;;;;;5011324;28;20056;-77
2022/08/10 11:46:45;;;;;;;2.90;0.90;;;27.70;94.30;;;;;;5011381;28;20145;-76
2022/08/10 11:49:29;;;;;;;5.68;0.82;;;27.60;94.90;;;;;;4962055;28;20114;-76
2022/08/10 11:52:03;;;;;;;2.92;0.73;;;27.80;94.00;;;;;;4963493;28;20138;-76
2022/08/10 11:54:55;;;;;;;4.40;0.90;;;27.80;93.90;;;;;;4993887;28;20096;-76
2022/08/10 11:57:29;;;;;;;1.73;0.80;;;27.80;94.10;;;;;;5011128;28;20057;-76
2022/08/10 12:00:16;;;;;;;4.13;0.88;;;28.00;93.40;;;;;;5013570;28;20046;-76
2022/08/10 12:02:52;;;;;;;1.20;0.65;;;28.10;93.20;;;;;;5015304;28;20074;-76
2022/08/10 12:05:27;;;;;;;1.45;0.80;;;28.10;93.20;;;;;;5015344;28;20080;-77
2022/08/10 12:08:20;;;;;;;5.65;0.95;;;28.20;93.30;;;;;;5014540;28;20054;-77
2022/08/10 12:11:13;;;;;;;2.95;0.90;;;28.20;93.30;;;;;;5013963;28;20050;-76
2022/08/10 12:14:11;;;;;;;2.72;0.80;;;28.10;92.60;;;;;;5013100;28;20136;-76
2022/08/10 12:16:51;;;;;;;1.58;0.93;;;28.30;92.90;;;;;;5013380;28;20060;-77
2022/08/10 12:19:26;;;;;;;1.42;0.80;;;28.20;92.50;;;;;;5012969;28;20054;-76
2022/08/10 12:22:00;;;;;;;1.38;0.60;;;28.30;92.50;;;;;;5013981;28;20131;-76
2022/08/10 12:25:14;;;;;;;3.92;0.65;;;28.50;92.20;;;;;;5014765;28;20479;-76
2022/08/10 12:28:09;;;;;;;2.90;0.60;;;28.60;91.90;;;;;;5014309;28;20045;-74
2022/08/10 12:30:43;;;;;;;3.78;0.68;;;28.60;92.00;;;;;;5014875;28;20137;-76
2022/08/10 12:33:29;;;;;;;1.58;0.70;;;28.70;91.40;;;;;;5015301;28;20070;-76
2022/08/10 12:36:25;;;;;;;1.85;0.80;;;28.60;91.10;;;;;;5012976;28;20053;-76
2022/08/10 12:38:55;;;;;;;1.10;0.60;;;28.60;91.20;;;;;;5013257;28;20519;-77
2022/08/10 12:41:36;;;;;;;2.72;0.90;;;28.80;91.40;;;;;;5014404;28;20153;-76
2022/08/10 12:44:17;;;;;;;4.97;0.90;;;28.70;90.90;;;;;;5013918;28;20133;-76
2022/08/10 12:46:58;;;;;;;3.47;0.88;;;28.60;91.30;;;;;;5014379;28;20081;-76
2022/08/10 12:49:40;;;;;;;5.40;1.25;;;28.50;91.10;;;;;;5013234;28;20077;-77
2022/08/10 12:52:33;;;;;;;0.98;0.77;;;28.50;91.00;;;;;;5012088;28;20080;-77
2022/08/10 12:55:03;;;;;;;1.75;0.60;;;28.60;90.80;;;;;;5013005;28;20412;-76
2022/08/10 12:57:34;;;;;;;1.27;0.70;;;28.60;90.40;;;;;;5012012;28;20085;-76
2022/08/10 13:00:04;;;;;;;4.10;0.70;;;28.80;90.30;;;;;;5013899;28;20137;-77
2022/08/10 13:02:38;;;;;;;1.15;0.63;;;28.80;89.90;;;;;;5012453;28;20046;-76
2022/08/10 13:05:12;;;;;;;3.13;0.63;;;28.80;90.00;;;;;;5013565;28;20049;-77
2022/08/10 13:07:42;;;;;;;2.60;0.70;;;28.70;90.00;;;;;;5014187;28;20085;-76
2022/08/10 13:10:29;;;;;;;1.25;0.80;;;28.70;89.70;;;;;;5012135;28;20057;-76
2022/08/10 13:12:58;;;;;;;3.70;0.80;;;28.80;89.70;;;;;;5013969;28;20075;-76
2022/08/10 13:15:30;;;;;;;1.45;0.73;;;28.90;89.70;;;;;;5013758;28;20482;-76
2022/08/10 13:18:23;;;;;;;1.15;0.63;;;28.90;89.80;;;;;;5012968;28;20419;-76
2022/08/10 13:20:54;;;;;;;4.88;0.80;;;29.00;88.00;;;;;;5011356;28;20496;-76
2022/08/10 13:23:26;;;;;;;1.85;0.63;;;29.20;88.60;;;;;;5013806;28;20145;-76
2022/08/10 13:25:58;;;;;;;4.60;0.75;;;29.10;88.70;;;;;;5011914;28;20490;-76
2022/08/10 13:28:43;;;;;;;2.33;0.70;;;29.00;88.10;;;;;;5013225;28;20085;-76
2022/08/10 13:31:16;;;;;;;3.75;0.73;;;29.10;87.20;;;;;;5012232;28;20046;-76
2022/08/10 13:33:49;;;;;;;3.30;0.70;;;29.00;87.10;;;;;;5013820;28;20114;-76
2022/08/10 13:36:39;;;;;;;1.13;0.82;;;29.00;86.10;;;;;;5012548;28;20049;-76
2022/08/10 13:39:07;;;;;;;5.00;0.90;;;28.90;87.00;;;;;;5010571;28;20092;-76
2022/08/10 13:41:39;;;;;;;1.92;0.80;;;29.10;87.20;;;;;;5013228;28;20057;-76
2022/08/10 13:44:10;;;;;;;2.42;0.68;;;29.20;86.20;;;;;;5013086;28;20085;-76
2022/08/10 13:46:40;;;;;;;2.42;0.60;;;29.30;87.20;;;;;;5013687;28;20104;-76
2022/08/10 13:49:09;;;;;;;8.88;0.75;;;29.40;85.20;;;;;;5012554;28;20124;-76